Portada
METAR-TAF:

METAR-TAF

Aeroports :

Hambantota, Sri Lanka

latitud: 06-17-20N, longitud: 81-07-25E, altitud: 48 m

Observació

L'informe es va fer fa 1 hora i 19 minuts, a les 12:10 UTC
Vent 5 kt del Sud
Temperatura 28°C
Humitat 89%
Pressió 1008 hPa
Visibilitat 10 km o més
Núvols disperses a una alçada de 1800 ft
Núvols disperses a una alçada de 2800 ft

METAR: VCRI 021210Z 17005KT 9999 SCT018 SCT028 28/26 Q1008 NOSIG

Hora: 18:59 (13:29 UTC)

Pronòstic

L'informe es va fer fa 2 hores i 29 minuts, a les 11:00 UTC
Pronòstic vàlid del 02 a les 12 UTC al 03 a les 18 UTC
Vent 5 kt amb direcció variable
Visibilitat 10 km o més
Núvols disperses a una alçada de 1800 ft
Probabilitat 30% :
Temporalment
l' 02 a les 12 UTC al 02 a les 16 UTC
Visibilitat: 7000 m
Núvols disperses a una alçada de 1700 ft
Escasses núvols a una alçada de 2000 ft, Cumulonimbus.

TAF: VCRI 021100Z 0212/0318 VRB05KT 9999 SCT018 TX32/0307Z TN23/0300Z PROB30 TEMPO 0212/0216 7000 -TSRA/SHRA SCT017 FEW020CB

Observacions i pronòstics meteorològics de més de 4000 aeroports (METAR i TAF).

Les estacions disponibles són els punts grocs i vermells al mapa.

Posi el ratolí al punt desitjat per veure el nom de l'estació.

Feu clic per veure les observacions i els pronòstics meteorològics.

Per canviar el mapa: feu clic els botons verds amb una creu de color negre per apropar; al botó verd amb un guió per allunyar la imatge; o en les fletxes verdes per a mapes adjacents.


METAR-TAF: